createdAt,value
2019-03-03T13:08:59.861Z,3.08
2019-03-03T13:11:31.788Z,3.58
2019-03-03T13:14:05.034Z,2.67
2019-03-03T13:16:38.270Z,2.67
2019-03-03T13:19:11.528Z,3.08
2019-03-03T13:21:44.767Z,2.75
2019-03-03T13:24:18.024Z,2.80
2019-03-03T13:26:51.265Z,2.55
2019-03-03T13:29:24.545Z,2.27
2019-03-03T13:31:57.762Z,2.92
2019-03-03T13:34:31.149Z,2.87
2019-03-03T13:37:04.381Z,2.95
2019-03-03T13:39:37.633Z,2.98
2019-03-03T13:42:10.888Z,3.08
2019-03-03T13:44:44.139Z,2.60
2019-03-03T13:47:17.382Z,2.55
2019-03-03T13:49:50.621Z,2.65
2019-03-03T13:52:23.865Z,3.52
2019-03-03T13:54:57.113Z,2.98
2019-03-03T13:57:30.346Z,3.37
2019-03-03T14:00:06.004Z,3.70
2019-03-03T14:02:39.236Z,3.10
2019-03-03T14:05:12.499Z,3.42
2019-03-03T14:07:45.736Z,3.00
2019-03-03T14:10:18.983Z,3.52
2019-03-03T14:12:52.214Z,3.08
2019-03-03T14:15:25.502Z,3.20
2019-03-03T14:17:58.741Z,2.67
2019-03-03T14:20:31.993Z,3.98
2019-03-03T14:23:05.225Z,3.05
2019-03-03T14:25:38.490Z,2.60
2019-03-03T14:28:11.725Z,2.60
2019-03-03T14:30:44.967Z,2.62
2019-03-03T14:33:18.200Z,2.95
2019-03-03T14:35:51.436Z,2.50
2019-03-03T14:38:24.671Z,3.00
2019-03-03T14:40:57.937Z,2.45
2019-03-03T14:43:31.173Z,3.15
2019-03-03T14:46:04.421Z,2.90
2019-03-03T14:48:37.653Z,3.33
2019-03-03T14:51:10.903Z,3.70
2019-03-03T14:53:44.146Z,4.10
2019-03-03T14:56:17.401Z,3.92
2019-03-03T14:58:50.633Z,3.02
2019-03-03T15:01:23.894Z,3.15
2019-03-03T15:03:57.129Z,3.10
2019-03-03T15:06:30.377Z,2.95
2019-03-03T15:09:04.093Z,2.58
2019-03-03T15:11:38.968Z,2.77
2019-03-03T15:14:12.202Z,4.50
2019-03-03T15:16:45.452Z,3.40
2019-03-03T15:19:18.712Z,3.22
2019-03-03T15:21:51.951Z,2.87
2019-03-03T15:24:25.258Z,3.90
2019-03-03T15:26:58.511Z,3.08
2019-03-03T15:29:31.746Z,3.33
2019-03-03T15:32:05.012Z,2.85
2019-03-03T15:34:38.546Z,3.30
2019-03-03T15:37:11.790Z,3.37
2019-03-03T15:39:45.041Z,4.75
2019-03-03T15:42:18.286Z,3.40
2019-03-03T15:44:51.531Z,3.40
2019-03-03T15:47:24.782Z,2.75
2019-03-03T15:49:58.009Z,2.90
2019-03-03T15:52:31.258Z,4.25
2019-03-03T15:55:09.945Z,3.27
2019-03-03T15:57:43.196Z,3.55
2019-03-03T16:00:30.787Z,3.08
2019-03-03T16:03:04.112Z,3.58
2019-03-03T16:05:37.348Z,3.95
2019-03-03T16:08:10.603Z,3.52
2019-03-03T16:10:43.848Z,3.17
2019-03-03T16:13:17.112Z,2.58
2019-03-03T16:15:54.404Z,3.15
2019-03-03T16:18:27.658Z,2.90
2019-03-03T16:21:00.896Z,3.62
2019-03-03T16:23:34.133Z,3.12
2019-03-03T16:26:07.356Z,2.50
2019-03-03T16:28:40.603Z,2.40
2019-03-03T16:31:13.835Z,2.33
2019-03-03T16:33:47.075Z,2.80
2019-03-03T16:36:20.314Z,2.65
2019-03-03T16:38:53.571Z,2.27
2019-03-03T16:41:26.806Z,3.17
2019-03-03T16:44:00.048Z,3.17
2019-03-03T16:46:33.297Z,4.45
2019-03-03T16:49:06.549Z,3.10
2019-03-03T16:51:39.772Z,3.37
2019-03-03T16:54:13.029Z,4.08
2019-03-03T16:56:46.255Z,3.65
2019-03-03T16:59:19.514Z,3.47
2019-03-03T17:01:52.748Z,4.72
2019-03-03T17:04:26.008Z,4.67
2019-03-03T17:06:59.252Z,5.90
2019-03-03T17:09:32.507Z,5.05
2019-03-03T17:12:05.751Z,5.20
2019-03-03T17:14:39.003Z,5.22
2019-03-03T17:17:12.240Z,5.17
2019-03-03T17:19:45.511Z,5.22
2019-03-03T17:22:18.743Z,6.72
2019-03-03T17:24:51.994Z,6.10
2019-03-03T17:27:25.221Z,5.97
2019-03-03T17:29:58.469Z,6.90
2019-03-03T17:32:31.716Z,6.28
2019-03-03T17:35:05.593Z,7.85
2019-03-03T17:37:38.824Z,6.97
2019-03-03T17:40:17.081Z,7.17
2019-03-03T17:42:50.280Z,6.92
2019-03-03T17:45:23.653Z,7.80
2019-03-03T17:47:56.905Z,7.22
2019-03-03T17:50:30.519Z,7.20
2019-03-03T17:53:03.744Z,7.53
2019-03-03T17:55:36.989Z,6.30
2019-03-03T17:58:10.808Z,6.50
2019-03-03T18:00:44.048Z,7.22
2019-03-03T18:03:17.298Z,6.40
2019-03-03T18:05:50.535Z,7.20
2019-03-03T18:08:23.764Z,5.78
2019-03-03T18:10:57.003Z,5.53
2019-03-03T18:13:30.234Z,6.05
2019-03-03T18:16:03.477Z,5.58
2019-03-03T18:18:37.685Z,4.70
2019-03-03T18:21:10.928Z,4.45
2019-03-03T18:23:44.168Z,4.80
2019-03-03T18:26:17.420Z,4.87
2019-03-03T18:28:50.648Z,3.70
2019-03-03T18:31:23.895Z,4.45
2019-03-03T18:33:57.127Z,3.67
2019-03-03T18:36:30.371Z,3.15
2019-03-03T18:39:05.141Z,3.42
2019-03-03T18:41:39.452Z,3.75
2019-03-03T18:44:12.675Z,3.45
2019-03-03T18:46:45.939Z,3.08
2019-03-03T18:49:20.146Z,3.08
2019-03-03T18:51:53.390Z,3.58
2019-03-03T18:54:26.640Z,3.17
2019-03-03T18:56:59.879Z,3.42
2019-03-03T18:59:33.102Z,2.10
2019-03-03T19:02:06.637Z,2.50
2019-03-03T19:04:39.985Z,2.22
2019-03-03T19:07:13.184Z,2.15
2019-03-03T19:09:46.406Z,2.30
2019-03-03T19:12:19.650Z,2.40
2019-03-03T19:14:52.875Z,2.77
2019-03-03T19:17:27.081Z,2.58
2019-03-03T19:20:00.313Z,1.70
2019-03-03T19:22:33.547Z,1.70
2019-03-03T19:25:09.315Z,1.67
2019-03-03T19:27:42.548Z,1.98
2019-03-03T19:30:21.027Z,1.60
2019-03-03T19:33:15.617Z,2.05
2019-03-03T19:35:48.846Z,2.00
2019-03-03T19:38:22.090Z,2.08
2019-03-03T19:40:55.316Z,2.15
2019-03-03T19:43:30.617Z,2.20
2019-03-03T19:46:06.860Z,1.60
2019-03-03T19:48:40.097Z,1.75
2019-03-03T19:51:13.350Z,2.00
2019-03-03T19:53:46.582Z,1.80
2019-03-03T19:56:19.814Z,1.80
2019-03-03T19:58:53.054Z,1.82
2019-03-03T20:01:26.281Z,1.95
2019-03-03T20:03:59.515Z,1.65
2019-03-03T20:06:32.743Z,1.42
2019-03-03T20:09:06.452Z,1.90
2019-03-03T20:11:41.151Z,1.87
2019-03-03T20:14:14.390Z,2.08
2019-03-03T20:16:47.623Z,2.10
2019-03-03T20:19:20.879Z,1.70
2019-03-03T20:21:54.115Z,1.37
2019-03-03T20:24:27.363Z,1.55
2019-03-03T20:27:00.598Z,1.55
2019-03-03T20:29:33.838Z,1.42
2019-03-03T20:32:07.065Z,1.35
2019-03-03T20:34:41.724Z,1.32
2019-03-03T20:37:18.042Z,1.12
2019-03-03T20:39:51.285Z,1.47
2019-03-03T20:42:24.530Z,1.25
2019-03-03T20:44:58.170Z,1.30
2019-03-03T20:47:31.407Z,1.30
2019-03-03T20:50:11.006Z,1.07
2019-03-03T20:52:44.226Z,1.67
2019-03-03T20:55:21.470Z,1.17
2019-03-03T20:57:54.701Z,1.30
2019-03-03T21:00:32.424Z,1.40
2019-03-03T21:03:05.654Z,0.95
2019-03-03T21:05:38.895Z,1.10
2019-03-03T21:08:12.117Z,1.60
2019-03-03T21:10:45.367Z,1.32
2019-03-03T21:13:18.600Z,2.08
2019-03-03T21:15:51.835Z,1.17
2019-03-03T21:18:25.085Z,1.60
2019-03-03T21:20:58.319Z,1.42
2019-03-03T21:23:31.561Z,1.62
2019-03-03T21:26:04.792Z,1.15
2019-03-03T21:28:38.028Z,1.20
2019-03-03T21:31:11.305Z,1.30
2019-03-03T21:33:44.770Z,1.02
2019-03-03T21:36:18.026Z,1.30
2019-03-03T21:38:51.259Z,1.17
2019-03-03T21:41:24.515Z,1.05
2019-03-03T21:43:57.740Z,1.52
2019-03-03T21:46:30.998Z,0.85
2019-03-03T21:49:04.244Z,1.22
2019-03-03T21:51:38.448Z,1.60
2019-03-03T21:54:11.685Z,1.62
2019-03-03T21:56:44.946Z,1.42
2019-03-03T21:59:18.171Z,1.30
2019-03-03T22:01:51.412Z,1.47
2019-03-03T22:04:24.650Z,1.00
2019-03-03T22:06:57.902Z,1.55
2019-03-03T22:09:31.135Z,1.20
2019-03-03T22:12:04.385Z,1.85
2019-03-03T22:14:37.608Z,1.30
2019-03-03T22:17:10.847Z,1.25
2019-03-03T22:19:44.077Z,0.90
2019-03-03T22:22:17.321Z,1.50
2019-03-03T22:24:50.554Z,0.93
2019-03-03T22:27:23.785Z,0.90
2019-03-03T22:29:57.013Z,1.22
2019-03-03T22:32:30.259Z,1.05
2019-03-03T22:35:05.232Z,1.35
2019-03-03T22:37:38.484Z,1.42
2019-03-03T22:40:19.641Z,1.12
2019-03-03T22:42:52.886Z,1.70
2019-03-03T22:45:26.118Z,1.50
2019-03-03T22:47:59.351Z,1.82
2019-03-03T22:50:32.581Z,1.52
2019-03-03T22:53:05.824Z,1.07
2019-03-03T22:55:40.485Z,1.07
2019-03-03T22:58:13.883Z,1.10
2019-03-03T23:00:52.844Z,0.93
2019-03-03T23:03:38.820Z,0.98
2019-03-03T23:06:23.601Z,1.42
2019-03-03T23:09:11.957Z,1.10
2019-03-03T23:12:08.240Z,0.95
2019-03-03T23:15:02.715Z,0.90
2019-03-03T23:18:00.284Z,1.00
2019-03-03T23:20:53.234Z,1.17
2019-03-03T23:23:50.632Z,0.95
2019-03-03T23:26:23.876Z,1.00
2019-03-03T23:28:58.167Z,0.90
2019-03-03T23:31:31.412Z,1.00
2019-03-03T23:34:04.649Z,1.20
2019-03-03T23:36:37.890Z,0.93
2019-03-03T23:39:11.116Z,0.93
2019-03-03T23:41:44.370Z,1.00
2019-03-03T23:44:17.599Z,1.30
2019-03-03T23:46:50.856Z,0.82
2019-03-03T23:49:24.085Z,0.98
2019-03-03T23:51:57.348Z,1.17
2019-03-03T23:54:30.579Z,1.02
2019-03-03T23:57:03.834Z,0.70
2019-03-03T23:59:37.059Z,1.20
